createdAt,value
2023-05-01T00:01:18.660Z,101718.73
2023-05-01T00:03:56.891Z,101716.98
2023-05-01T00:06:29.306Z,101719.00
2023-05-01T00:09:03.816Z,101719.41
2023-05-01T00:11:38.446Z,101722.89
2023-05-01T00:14:11.552Z,101725.86
2023-05-01T00:16:43.112Z,101726.05
2023-05-01T00:19:23.569Z,101724.67
2023-05-01T00:21:59.399Z,101719.48
2023-05-01T00:24:31.552Z,101721.29
2023-05-01T00:27:06.098Z,101719.80
2023-05-01T00:29:40.513Z,101720.19
2023-05-01T00:32:11.808Z,101718.11
2023-05-01T00:34:46.256Z,101716.62
2023-05-01T00:37:19.456Z,101713.18
2023-05-01T00:39:51.999Z,101711.12
2023-05-01T00:42:26.376Z,101714.77
2023-05-01T00:45:00.832Z,101716.88
2023-05-01T00:47:34.273Z,101717.89
2023-05-01T00:50:07.349Z,101716.23
2023-05-01T00:52:38.971Z,101714.99
2023-05-01T00:55:11.260Z,101711.95
2023-05-01T00:57:42.838Z,101709.29
2023-05-01T01:00:19.498Z,101708.70
2023-05-01T01:02:51.379Z,101703.67
2023-05-01T01:05:27.418Z,101702.28
2023-05-01T01:08:14.163Z,101701.30
2023-05-01T01:11:03.615Z,101703.91
2023-05-01T01:13:48.188Z,101705.16
2023-05-01T01:16:30.400Z,101709.52
2023-05-01T01:19:20.659Z,101708.81
2023-05-01T01:22:04.370Z,101712.52
2023-05-01T01:24:58.210Z,101716.56
2023-05-01T01:27:49.153Z,101714.54
2023-05-01T01:31:10.468Z,101714.66
2023-05-01T01:33:56.857Z,101713.40
2023-05-01T01:36:40.190Z,101715.63
2023-05-01T01:39:41.779Z,101716.91
2023-05-01T01:42:18.355Z,101715.14
2023-05-01T01:44:54.586Z,101721.24
2023-05-01T01:47:31.564Z,101715.48
2023-05-01T01:50:07.132Z,101711.71
2023-05-01T01:52:43.363Z,101714.22
2023-05-01T01:55:22.419Z,101709.05
2023-05-01T01:57:55.733Z,101705.54
2023-05-01T02:00:28.140Z,101700.11
2023-05-01T02:03:04.001Z,101696.68
2023-05-01T02:05:38.142Z,101696.10
2023-05-01T02:08:11.188Z,101694.20
2023-05-01T02:10:45.309Z,101690.48
2023-05-01T02:13:20.604Z,101687.64
2023-05-01T02:15:55.243Z,101686.65
2023-05-01T02:18:30.449Z,101682.85
2023-05-01T02:21:05.367Z,101681.95
2023-05-01T02:23:43.400Z,101677.21
2023-05-01T02:26:19.618Z,101676.45
2023-05-01T02:28:54.652Z,101671.60
2023-05-01T02:31:28.428Z,101670.88
2023-05-01T02:34:04.599Z,101667.56
2023-05-01T02:36:38.596Z,101667.98
2023-05-01T02:39:14.078Z,101665.15
2023-05-01T02:41:47.777Z,101663.39
2023-05-01T02:44:21.288Z,101667.94
2023-05-01T02:46:56.281Z,101668.66
2023-05-01T02:49:28.205Z,101667.23
2023-05-01T02:52:04.332Z,101663.97
2023-05-01T02:54:38.573Z,101663.30
2023-05-01T02:57:17.550Z,101665.81
2023-05-01T02:59:57.416Z,101663.61
2023-05-01T03:02:30.769Z,101660.73
2023-05-01T03:05:04.871Z,101658.67
2023-05-01T03:07:37.786Z,101662.48
2023-05-01T03:10:13.078Z,101657.72
2023-05-01T03:12:46.178Z,101658.90
2023-05-01T03:15:23.885Z,101654.79
2023-05-01T03:17:54.445Z,101654.65
2023-05-01T03:20:27.526Z,101656.67
2023-05-01T03:23:03.149Z,101653.90
2023-05-01T03:25:36.314Z,101653.19
2023-05-01T03:28:12.176Z,101650.59
2023-05-01T03:30:45.200Z,101650.77
2023-05-01T03:33:21.179Z,101652.10
2023-05-01T03:36:03.818Z,101650.01
2023-05-01T03:38:55.261Z,101651.29
2023-05-01T03:41:44.662Z,101654.02
2023-05-01T03:44:27.498Z,101654.89
2023-05-01T03:47:01.963Z,101656.73
2023-05-01T03:49:36.884Z,101656.36
2023-05-01T03:52:10.268Z,101658.45
2023-05-01T03:54:43.541Z,101665.23
2023-05-01T03:57:35.512Z,101664.54
2023-05-01T04:00:17.585Z,101665.23
2023-05-01T04:02:51.424Z,101663.81
2023-05-01T04:05:32.079Z,101665.41
2023-05-01T04:08:11.919Z,101664.98
2023-05-01T04:10:52.786Z,101666.30
2023-05-01T04:13:24.357Z,101669.39
2023-05-01T04:15:59.071Z,101666.70
2023-05-01T04:18:31.543Z,101665.17
2023-05-01T04:21:07.523Z,101659.55
2023-05-01T04:23:46.581Z,101659.22
2023-05-01T04:26:19.729Z,101660.30
2023-05-01T04:28:50.303Z,101660.77
2023-05-01T04:31:25.897Z,101661.55
2023-05-01T04:33:58.644Z,101663.77
2023-05-01T04:36:32.570Z,101666.27
2023-05-01T04:39:06.547Z,101662.77
2023-05-01T04:41:38.675Z,101662.18
2023-05-01T04:44:11.834Z,101662.02
2023-05-01T04:46:47.677Z,101656.22
2023-05-01T04:49:19.051Z,101657.55
2023-05-01T04:51:53.487Z,101655.05
2023-05-01T04:54:28.206Z,101655.09
2023-05-01T04:57:00.951Z,101656.36
2023-05-01T04:59:34.556Z,101660.90
2023-05-01T05:02:10.364Z,101657.54
2023-05-01T05:04:43.150Z,101659.00
2023-05-01T05:07:15.468Z,101656.11
2023-05-01T05:10:16.724Z,101654.61
2023-05-01T05:12:53.965Z,101651.38
2023-05-01T05:15:26.812Z,101649.04
2023-05-01T05:17:58.646Z,101648.06
2023-05-01T05:20:30.594Z,101642.52
2023-05-01T05:23:09.752Z,101641.98
2023-05-01T05:25:43.062Z,101642.20
2023-05-01T05:28:14.985Z,101641.52
2023-05-01T05:30:47.734Z,101642.51
2023-05-01T05:33:24.654Z,101639.40
2023-05-01T05:35:59.727Z,101639.80
2023-05-01T05:38:36.728Z,101637.39
2023-05-01T05:41:26.131Z,101639.27
2023-05-01T05:44:01.776Z,101630.71
2023-05-01T05:46:35.532Z,101631.82
2023-05-01T05:49:07.767Z,101631.34
2023-05-01T05:51:41.499Z,101630.38
2023-05-01T05:54:15.247Z,101630.18
2023-05-01T05:56:45.103Z,101627.83
2023-05-01T05:59:17.440Z,101625.48
2023-05-01T06:01:50.657Z,101622.31
2023-05-01T06:04:22.890Z,101624.79
2023-05-01T06:06:56.243Z,101622.83
2023-05-01T06:09:30.122Z,101626.35
2023-05-01T06:12:04.394Z,101630.45
2023-05-01T06:14:37.266Z,101631.02
2023-05-01T06:17:10.184Z,101627.94
2023-05-01T06:19:42.842Z,101627.52
2023-05-01T06:22:18.363Z,101627.23
2023-05-01T06:25:06.425Z,101626.61
2023-05-01T06:27:41.107Z,101629.85
2023-05-01T06:30:15.408Z,101625.53
2023-05-01T06:32:46.850Z,101624.13
2023-05-01T06:35:21.974Z,101621.73
2023-05-01T06:37:56.880Z,101620.08
2023-05-01T06:40:32.446Z,101619.85
2023-05-01T06:43:05.979Z,101616.63
2023-05-01T06:45:40.075Z,101608.20
2023-05-01T06:48:29.511Z,101605.79
2023-05-01T06:51:00.984Z,101603.94
2023-05-01T06:53:35.108Z,101603.23
2023-05-01T06:56:12.768Z,101602.23
2023-05-01T06:58:44.710Z,101601.19
2023-05-01T07:01:18.436Z,101594.67
2023-05-01T07:03:50.648Z,101589.45
2023-05-01T07:06:24.283Z,101593.91
2023-05-01T07:08:59.953Z,101585.17
2023-05-01T07:11:31.060Z,101588.98
2023-05-01T07:14:05.219Z,101583.33
2023-05-01T07:16:39.272Z,101585.94
2023-05-01T07:19:10.722Z,101583.23
2023-05-01T07:21:43.961Z,101585.90
2023-05-01T07:24:17.635Z,101581.04
2023-05-01T07:26:53.066Z,101578.45
2023-05-01T07:29:24.943Z,101572.66
2023-05-01T07:32:03.128Z,101570.44
2023-05-01T07:34:36.621Z,101571.92
2023-05-01T07:37:10.608Z,101571.80
2023-05-01T07:39:45.868Z,101565.39
2023-05-01T07:42:16.557Z,101564.84
2023-05-01T07:44:50.965Z,101566.28
2023-05-01T07:47:24.654Z,101562.20
2023-05-01T07:49:57.746Z,101562.25
2023-05-01T07:52:30.908Z,101560.25
2023-05-01T07:55:03.806Z,101557.16
2023-05-01T07:57:38.537Z,101558.88
2023-05-01T08:00:18.216Z,101555.23
2023-05-01T08:02:50.505Z,101548.86
2023-05-01T08:05:24.418Z,101544.77
2023-05-01T08:07:56.087Z,101543.60
2023-05-01T08:10:28.280Z,101543.01
2023-05-01T08:13:00.032Z,101546.09
2023-05-01T08:15:33.197Z,101544.41
2023-05-01T08:18:05.092Z,101542.42
2023-05-01T08:20:39.371Z,101538.33
2023-05-01T08:23:11.498Z,101537.16
2023-05-01T08:25:47.289Z,101536.79
2023-05-01T08:28:21.034Z,101540.39
2023-05-01T08:30:54.583Z,101534.59
2023-05-01T08:33:27.886Z,101533.90
2023-05-01T08:36:02.083Z,101533.30
2023-05-01T08:38:36.230Z,101533.16
2023-05-01T08:41:10.681Z,101529.45
2023-05-01T08:43:43.466Z,101530.40
2023-05-01T08:46:17.697Z,101530.88
2023-05-01T08:48:50.931Z,101528.67
2023-05-01T08:51:24.496Z,101523.46
2023-05-01T08:53:58.587Z,101516.63
2023-05-01T08:56:31.814Z,101517.38
2023-05-01T08:59:10.062Z,101516.17
2023-05-01T09:01:43.629Z,101516.67
2023-05-01T09:04:18.490Z,101514.87
2023-05-01T09:06:51.842Z,101508.95
2023-05-01T09:09:24.532Z,101506.63
2023-05-01T09:12:00.864Z,101506.81
2023-05-01T09:14:34.644Z,101505.10
2023-05-01T09:17:10.722Z,101501.79
2023-05-01T09:19:43.068Z,101498.85
2023-05-01T09:22:15.508Z,101496.71
2023-05-01T09:24:48.303Z,101493.40
2023-05-01T09:27:21.086Z,101486.15
2023-05-01T09:29:52.913Z,101485.70
2023-05-01T09:32:28.753Z,101481.38
2023-05-01T09:35:13.907Z,101479.33
2023-05-01T09:37:52.396Z,101477.64
2023-05-01T09:40:31.477Z,101468.06
2023-05-01T09:43:03.928Z,101465.27
2023-05-01T09:45:37.284Z,101458.16
2023-05-01T09:48:14.108Z,101454.20
2023-05-01T09:50:47.756Z,101451.19
2023-05-01T09:53:20.365Z,101448.20
2023-05-01T09:56:04.399Z,101448.43
2023-05-01T09:58:42.482Z,101438.62
2023-05-01T10:01:13.133Z,101440.35
2023-05-01T10:03:55.155Z,101434.66
2023-05-01T10:06:31.500Z,101431.44
2023-05-01T10:09:09.604Z,101427.86
2023-05-01T10:11:59.616Z,101427.97
2023-05-01T10:14:38.729Z,101422.33
2023-05-01T10:17:24.311Z,101418.92
2023-05-01T10:20:05.537Z,101417.55
2023-05-01T10:22:40.319Z,101414.50
2023-05-01T10:25:13.865Z,101414.79
2023-05-01T10:27:46.297Z,101407.31
2023-05-01T10:30:22.524Z,101403.86
2023-05-01T10:32:54.770Z,101402.58
2023-05-01T10:35:33.619Z,101403.09
2023-05-01T10:38:08.367Z,101395.90
2023-05-01T10:41:11.463Z,101394.79
2023-05-01T10:43:44.395Z,101391.91
2023-05-01T10:46:40.724Z,101392.20
2023-05-01T10:49:14.328Z,101383.52
2023-05-01T10:52:04.149Z,101380.44
2023-05-01T10:54:38.082Z,101386.60
2023-05-01T10:57:10.007Z,101383.20
2023-05-01T11:00:13.517Z,101382.02
2023-05-01T11:02:47.402Z,101381.05
2023-05-01T11:05:26.229Z,101372.98
2023-05-01T11:08:33.840Z,101365.91
2023-05-01T11:11:40.413Z,101362.42
2023-05-01T11:14:14.282Z,101360.68
2023-05-01T11:16:49.860Z,101356.60
2023-05-01T11:19:49.044Z,101350.05
2023-05-01T11:22:25.305Z,101352.69
2023-05-01T11:24:58.829Z,101347.33
2023-05-01T11:27:31.772Z,101341.83
2023-05-01T11:30:13.327Z,101344.73
2023-05-01T11:32:46.491Z,101345.64
2023-05-01T11:35:24.605Z,101343.30
2023-05-01T11:37:58.827Z,101340.56
2023-05-01T11:40:32.261Z,101339.34
2023-05-01T11:43:06.406Z,101336.59
2023-05-01T11:45:40.253Z,101329.67
2023-05-01T11:48:18.014Z,101327.23
2023-05-01T11:50:51.367Z,101323.57
2023-05-01T11:53:23.655Z,101324.60
2023-05-01T11:55:54.368Z,101318.46
2023-05-01T11:58:42.991Z,101310.92
2023-05-01T12:01:15.365Z,101303.33
2023-05-01T12:03:47.681Z,101303.08
2023-05-01T12:06:20.516Z,101298.39
2023-05-01T12:08:54.907Z,101294.40
2023-05-01T12:11:27.552Z,101292.63
2023-05-01T12:13:59.783Z,101283.25
2023-05-01T12:16:32.425Z,101286.96
2023-05-01T12:19:05.516Z,101278.16
2023-05-01T12:21:38.198Z,101278.24
2023-05-01T12:24:13.144Z,101276.52
2023-05-01T12:26:45.708Z,101267.73
2023-05-01T12:29:15.617Z,101265.68
2023-05-01T12:31:50.729Z,101261.77
2023-05-01T12:34:31.608Z,101258.09
2023-05-01T12:37:05.422Z,101250.50
2023-05-01T12:39:42.295Z,101250.64
2023-05-01T12:42:20.449Z,101246.48
2023-05-01T12:45:02.838Z,101242.88
2023-05-01T12:47:40.569Z,101239.53
2023-05-01T12:50:13.566Z,101238.19
2023-05-01T12:52:46.378Z,101235.45
2023-05-01T12:55:19.390Z,101231.67
2023-05-01T12:57:56.513Z,101217.17
2023-05-01T13:00:28.589Z,101212.83
2023-05-01T13:03:07.421Z,101210.85
2023-05-01T13:05:51.878Z,101208.85
2023-05-01T13:08:36.266Z,101199.59
2023-05-01T13:11:15.875Z,101198.85
2023-05-01T13:13:48.954Z,101194.48
2023-05-01T13:16:23.197Z,101196.90
2023-05-01T13:18:55.783Z,101196.67
2023-05-01T13:21:27.031Z,101193.40
2023-05-01T13:23:59.929Z,101189.23
2023-05-01T13:26:35.164Z,101177.02
2023-05-01T13:29:08.727Z,101173.11
2023-05-01T13:31:45.503Z,101169.58
2023-05-01T13:34:23.290Z,101167.55
2023-05-01T13:36:55.217Z,101164.60
2023-05-01T13:39:28.921Z,101159.08
2023-05-01T13:42:01.724Z,101160.77
2023-05-01T13:44:38.176Z,101159.13
2023-05-01T13:47:11.774Z,101163.24
2023-05-01T13:49:45.389Z,101155.80
2023-05-01T13:52:18.656Z,101153.55
2023-05-01T13:54:55.658Z,101153.55
2023-05-01T13:57:28.048Z,101157.00
2023-05-01T14:00:00.177Z,101154.84
2023-05-01T14:02:31.765Z,101144.83
2023-05-01T14:05:08.731Z,101139.20
2023-05-01T14:07:46.991Z,101136.01
2023-05-01T14:10:18.619Z,101137.65
2023-05-01T14:12:51.010Z,101135.48
2023-05-01T14:15:24.485Z,101134.09
2023-05-01T14:17:58.409Z,101123.66
2023-05-01T14:20:30.837Z,101116.05
2023-05-01T14:23:04.035Z,101110.08
2023-05-01T14:25:38.203Z,101109.73
2023-05-01T14:28:09.698Z,101110.16
2023-05-01T14:30:41.529Z,101108.35
2023-05-01T14:33:14.687Z,101106.20
2023-05-01T14:35:52.565Z,101096.11
2023-05-01T14:38:27.830Z,101089.75
2023-05-01T14:41:00.972Z,101092.16
2023-05-01T14:43:53.024Z,101087.23
2023-05-01T14:46:31.437Z,101086.11
2023-05-01T14:49:04.157Z,101083.74
2023-05-01T14:51:37.054Z,101076.39
2023-05-01T14:54:12.758Z,101070.48
2023-05-01T14:56:45.153Z,101066.52
2023-05-01T14:59:17.820Z,101064.37
2023-05-01T15:01:50.390Z,101061.54
2023-05-01T15:04:22.508Z,101063.09
2023-05-01T15:06:55.652Z,101062.21
2023-05-01T15:09:27.856Z,101064.39
2023-05-01T15:12:03.554Z,101063.46
2023-05-01T15:14:37.812Z,101064.98
2023-05-01T15:17:10.763Z,101059.20
2023-05-01T15:19:51.585Z,101054.85
2023-05-01T15:22:23.829Z,101056.55
2023-05-01T15:24:55.100Z,101050.94
2023-05-01T15:27:27.658Z,101046.99
2023-05-01T15:30:00.480Z,101048.50
2023-05-01T15:32:34.854Z,101045.81
2023-05-01T15:35:07.036Z,101041.86
2023-05-01T15:37:39.716Z,101038.40
2023-05-01T15:40:12.595Z,101030.94
2023-05-01T15:42:45.242Z,101027.69
2023-05-01T15:45:20.675Z,101031.70
2023-05-01T15:47:53.620Z,101027.94
2023-05-01T15:50:24.866Z,101024.98
2023-05-01T15:52:58.259Z,101022.27
2023-05-01T15:55:30.214Z,101021.15
2023-05-01T15:58:03.447Z,101018.40
2023-05-01T16:00:39.753Z,101020.03
2023-05-01T16:03:13.462Z,101020.76
2023-05-01T16:05:49.052Z,101021.34
2023-05-01T16:08:22.834Z,101018.97
2023-05-01T16:10:57.444Z,101013.89
2023-05-01T16:13:29.531Z,101014.10
2023-05-01T16:16:03.540Z,101011.77
2023-05-01T16:18:36.447Z,101008.54
2023-05-01T16:21:12.532Z,101006.41
2023-05-01T16:23:45.530Z,100997.80
2023-05-01T16:26:22.982Z,100993.59
2023-05-01T16:29:00.071Z,100988.08
2023-05-01T16:31:39.275Z,100990.70
2023-05-01T16:34:14.494Z,100989.55
2023-05-01T16:36:47.068Z,100989.75
2023-05-01T16:39:21.699Z,100989.53
2023-05-01T16:41:54.171Z,100989.27
2023-05-01T16:44:26.967Z,100988.46
2023-05-01T16:47:00.913Z,100986.42
2023-05-01T16:49:33.662Z,100985.59
2023-05-01T16:52:07.838Z,100985.19
2023-05-01T16:54:39.716Z,100978.75
2023-05-01T16:57:11.970Z,100976.84
2023-05-01T16:59:43.582Z,100971.48
2023-05-01T17:02:15.955Z,100974.61
2023-05-01T17:04:47.999Z,100971.31
2023-05-01T17:07:20.813Z,100966.12
2023-05-01T17:09:54.719Z,100966.08
2023-05-01T17:12:27.913Z,100963.40
2023-05-01T17:15:00.377Z,100963.11
2023-05-01T17:17:32.981Z,100959.40
2023-05-01T17:20:15.561Z,100960.10
2023-05-01T17:22:49.081Z,100960.71
2023-05-01T17:25:20.946Z,100960.38
2023-05-01T17:27:52.930Z,100958.90
2023-05-01T17:30:25.518Z,100954.80
2023-05-01T17:32:58.658Z,100951.31
2023-05-01T17:35:36.762Z,100948.98
2023-05-01T17:38:08.681Z,100951.52
2023-05-01T17:40:45.492Z,100949.86
2023-05-01T17:43:16.945Z,100947.86
2023-05-01T17:45:54.483Z,100945.82
2023-05-01T17:48:26.812Z,100946.27
2023-05-01T17:50:58.683Z,100948.73
2023-05-01T17:53:31.969Z,100949.54
2023-05-01T17:56:05.137Z,100949.48
2023-05-01T17:58:37.371Z,100944.89
2023-05-01T18:01:10.344Z,100943.83
2023-05-01T18:03:44.076Z,100946.45
2023-05-01T18:06:19.391Z,100949.05
2023-05-01T18:08:52.204Z,100948.02
2023-05-01T18:11:25.149Z,100944.92
2023-05-01T18:13:57.384Z,100942.65
2023-05-01T18:16:30.241Z,100937.20
2023-05-01T18:19:01.575Z,100934.33
2023-05-01T18:21:35.061Z,100930.59
2023-05-01T18:24:07.260Z,100937.20
2023-05-01T18:26:38.502Z,100937.20
2023-05-01T18:29:15.315Z,100943.83
2023-05-01T18:31:48.476Z,100945.63
2023-05-01T18:34:21.563Z,100947.27
2023-05-01T18:36:54.931Z,100951.02
2023-05-01T18:39:37.337Z,100953.71
2023-05-01T18:42:12.879Z,100950.70
2023-05-01T18:44:45.435Z,100947.89
2023-05-01T18:47:17.495Z,100948.92
2023-05-01T18:49:49.407Z,100945.38
2023-05-01T18:52:24.978Z,100944.37
2023-05-01T18:54:55.920Z,100950.23
2023-05-01T18:57:30.625Z,100944.11
2023-05-01T19:00:03.774Z,100949.09
2023-05-01T19:02:36.946Z,100951.27
2023-05-01T19:05:10.927Z,100950.29
2023-05-01T19:07:43.778Z,100949.26
2023-05-01T19:10:19.966Z,100948.65
2023-05-01T19:12:53.517Z,100949.30
2023-05-01T19:15:26.815Z,100946.70
2023-05-01T19:17:59.213Z,100940.56
2023-05-01T19:20:32.341Z,100940.78
2023-05-01T19:23:06.192Z,100936.46
2023-05-01T19:25:38.010Z,100937.66
2023-05-01T19:28:12.007Z,100938.52
2023-05-01T19:30:43.801Z,100937.20
2023-05-01T19:33:16.134Z,100934.67
2023-05-01T19:35:49.336Z,100933.77
2023-05-01T19:38:18.844Z,100933.23
2023-05-01T19:40:50.528Z,100930.89
2023-05-01T19:43:21.921Z,100929.88
2023-05-01T19:45:53.888Z,100931.33
2023-05-01T19:48:25.367Z,100925.60
2023-05-01T19:50:58.777Z,100924.61
2023-05-01T19:53:31.188Z,100925.20
2023-05-01T19:56:06.216Z,100923.13
2023-05-01T19:58:43.397Z,100918.65
2023-05-01T20:01:15.510Z,100917.21
2023-05-01T20:03:49.325Z,100917.94
2023-05-01T20:06:21.259Z,100918.04
2023-05-01T20:08:52.912Z,100913.54
2023-05-01T20:11:24.010Z,100913.13
2023-05-01T20:13:55.038Z,100907.20
2023-05-01T20:16:27.401Z,100905.19
2023-05-01T20:18:59.379Z,100900.90
2023-05-01T20:21:31.912Z,100898.90
2023-05-01T20:24:06.227Z,100898.34
2023-05-01T20:26:39.333Z,100891.41
2023-05-01T20:29:11.691Z,100892.14
2023-05-01T20:31:43.331Z,100894.32
2023-05-01T20:34:16.024Z,100894.97
2023-05-01T20:36:51.916Z,100891.11
2023-05-01T20:39:23.121Z,100891.84
2023-05-01T20:41:56.219Z,100886.52
2023-05-01T20:44:30.099Z,100890.66
2023-05-01T20:47:04.459Z,100888.80
2023-05-01T20:49:35.993Z,100883.98
2023-05-01T20:52:08.869Z,100883.53
2023-05-01T20:54:42.484Z,100880.43
2023-05-01T20:57:16.991Z,100882.84
2023-05-01T20:59:53.129Z,100881.58
2023-05-01T21:02:26.280Z,100879.81
2023-05-01T21:04:56.457Z,100878.80
2023-05-01T21:07:29.515Z,100883.59
2023-05-01T21:10:03.132Z,100882.14
2023-05-01T21:12:35.075Z,100878.88
2023-05-01T21:15:07.837Z,100882.38
2023-05-01T21:17:40.757Z,100881.24
2023-05-01T21:20:17.372Z,100883.77
2023-05-01T21:22:50.573Z,100883.57
2023-05-01T21:25:27.519Z,100885.48
2023-05-01T21:28:02.199Z,100884.30
2023-05-01T21:30:36.135Z,100884.36
2023-05-01T21:33:09.537Z,100885.69
2023-05-01T21:35:45.412Z,100887.35
2023-05-01T21:38:18.338Z,100884.64
2023-05-01T21:40:53.236Z,100882.86
2023-05-01T21:43:26.134Z,100881.39
2023-05-01T21:45:59.284Z,100884.20
2023-05-01T21:48:34.574Z,100884.41
2023-05-01T21:51:07.547Z,100886.20
2023-05-01T21:53:43.965Z,100885.30
2023-05-01T21:56:16.193Z,100883.91
2023-05-01T21:58:45.818Z,100886.73
2023-05-01T22:01:20.143Z,100887.69
2023-05-01T22:03:53.131Z,100881.93
2023-05-01T22:06:27.172Z,100886.34
2023-05-01T22:08:58.953Z,100884.08
2023-05-01T22:11:32.367Z,100883.05
2023-05-01T22:14:07.736Z,100880.02
2023-05-01T22:16:43.354Z,100878.44
2023-05-01T22:19:16.658Z,100877.55
2023-05-01T22:21:50.076Z,100876.48
2023-05-01T22:24:23.568Z,100879.01
2023-05-01T22:26:55.826Z,100875.55
2023-05-01T22:29:26.372Z,100872.80
2023-05-01T22:31:58.285Z,100872.89
2023-05-01T22:34:28.237Z,100868.55
2023-05-01T22:36:58.252Z,100862.46
2023-05-01T22:39:30.872Z,100865.50
2023-05-01T22:42:03.711Z,100860.57
2023-05-01T22:44:36.601Z,100859.42
2023-05-01T22:47:07.967Z,100857.96
2023-05-01T22:49:41.002Z,100857.15
2023-05-01T22:52:14.086Z,100853.11
2023-05-01T22:54:49.172Z,100851.93
2023-05-01T22:57:24.051Z,100850.44
2023-05-01T22:59:56.792Z,100846.16
2023-05-01T23:02:29.240Z,100843.48
2023-05-01T23:05:02.540Z,100841.62
2023-05-01T23:07:34.749Z,100844.52
2023-05-01T23:10:12.275Z,100837.80
2023-05-01T23:12:49.010Z,100838.08
2023-05-01T23:15:27.131Z,100833.89
2023-05-01T23:17:58.608Z,100835.83
2023-05-01T23:20:31.852Z,100829.51
2023-05-01T23:23:06.546Z,100827.67
2023-05-01T23:25:44.715Z,100832.52
2023-05-01T23:28:23.790Z,100832.60
2023-05-01T23:30:57.642Z,100831.13
2023-05-01T23:33:35.476Z,100829.71
2023-05-01T23:36:12.534Z,100826.15
2023-05-01T23:38:44.697Z,100826.95
2023-05-01T23:41:18.459Z,100820.88
2023-05-01T23:43:52.493Z,100817.33
2023-05-01T23:46:24.182Z,100813.52
2023-05-01T23:48:56.243Z,100806.58
2023-05-01T23:51:28.197Z,100805.71
2023-05-01T23:54:03.762Z,100803.47
2023-05-01T23:56:37.497Z,100800.92
2023-05-01T23:59:10.324Z,100799.38
